Time;durP1;ratioP1;P1;durP2;ratioP2;P2;SDS_P1;SDS_P2;PMS_P1;PMS_P2;Temp;Humidity;BMP_temperature;BMP_pressure;BME280_temperature;BME280_humidity;BME280_pressure;Samples;Min_cycle;Max_cycle;Signal;HPM_P1;HPM_P2
2024/04/02 00:00:43;;;;;;;2.15;0.60;;;10.80;99.90;;;;;;5033616;28;20188;-75
2024/04/02 00:03:11;;;;;;;1.60;0.65;;;10.80;99.90;;;;;;5033180;28;20181;-75
2024/04/02 00:05:38;;;;;;;1.95;0.70;;;10.80;99.90;;;;;;5015558;28;20170;-75
2024/04/02 00:08:05;;;;;;;2.00;0.70;;;10.70;99.90;;;;;;5033664;28;20201;-75
2024/04/02 00:10:32;;;;;;;2.13;0.70;;;10.80;99.90;;;;;;5035805;28;20549;-75
2024/04/02 00:12:58;;;;;;;2.20;0.80;;;10.80;99.90;;;;;;5031912;28;20182;-75
2024/04/02 00:15:24;;;;;;;1.20;0.50;;;10.80;99.90;;;;;;5031779;28;20170;-75
2024/04/02 00:17:51;;;;;;;3.95;0.60;;;10.80;99.90;;;;;;5031377;28;20190;-75
2024/04/02 00:20:17;;;;;;;3.55;0.65;;;10.80;99.90;;;;;;5031663;28;20189;-75
2024/04/02 00:22:44;;;;;;;1.63;0.60;;;10.80;99.90;;;;;;5031592;28;20192;-75
2024/04/02 00:25:10;;;;;;;2.90;0.60;;;10.80;99.90;;;;;;5031645;28;20674;-75
2024/04/02 00:27:36;;;;;;;4.40;0.73;;;10.80;99.90;;;;;;5032758;28;20194;-75
2024/04/02 00:30:02;;;;;;;1.60;0.60;;;10.80;99.90;;;;;;5032957;28;20203;-75
2024/04/02 00:32:28;;;;;;;2.10;0.63;;;10.80;99.90;;;;;;5032509;28;20698;-75
2024/04/02 00:34:54;;;;;;;2.37;0.60;;;10.80;99.90;;;;;;5032800;28;20675;-75
2024/04/02 00:37:20;;;;;;;3.03;0.80;;;10.70;99.90;;;;;;5032444;28;20404;-75
2024/04/02 00:39:46;;;;;;;2.00;0.70;;;10.70;99.90;;;;;;5037865;28;20627;-76
2024/04/02 00:42:12;;;;;;;3.03;0.90;;;10.70;99.90;;;;;;5035717;28;20249;-76
2024/04/02 00:44:38;;;;;;;3.28;0.70;;;10.60;99.90;;;;;;5032819;28;20174;-76
2024/04/02 00:47:05;;;;;;;1.60;0.70;;;10.60;99.90;;;;;;5034068;28;20174;-76
2024/04/02 00:49:32;;;;;;;2.25;0.65;;;10.60;99.90;;;;;;5031185;28;20222;-76
2024/04/02 00:51:59;;;;;;;1.50;0.80;;;10.60;99.90;;;;;;5032321;28;20182;-76
2024/04/02 00:54:26;;;;;;;2.60;0.70;;;10.60;99.90;;;;;;5032573;28;20572;-77
2024/04/02 00:56:52;;;;;;;2.67;0.80;;;10.50;99.90;;;;;;5030868;28;20193;-76
2024/04/02 00:59:18;;;;;;;6.33;0.63;;;10.50;99.90;;;;;;5032184;28;20201;-76
2024/04/02 01:01:44;;;;;;;1.97;0.70;;;10.50;99.90;;;;;;5032349;28;21094;-76
2024/04/02 01:04:13;;;;;;;1.67;0.90;;;10.50;99.90;;;;;;5032260;28;20595;-76
2024/04/02 01:06:39;;;;;;;2.33;0.80;;;10.50;99.90;;;;;;5024299;28;20576;-76
2024/04/02 01:09:06;;;;;;;1.60;0.70;;;10.50;99.90;;;;;;5032088;28;20198;-76
2024/04/02 01:11:33;;;;;;;2.05;0.73;;;10.50;99.90;;;;;;5030901;28;20169;-76
2024/04/02 01:13:59;;;;;;;1.50;0.60;;;10.50;99.90;;;;;;5030859;28;20178;-76
2024/04/02 01:16:24;;;;;;;3.30;1.30;;;10.40;99.90;;;;;;5031907;28;20188;-76
2024/04/02 01:18:50;;;;;;;1.40;0.60;;;10.40;99.90;;;;;;5032083;28;20209;-76
2024/04/02 01:21:18;;;;;;;1.50;0.67;;;10.30;99.90;;;;;;5030962;28;20165;-76
2024/04/02 01:23:44;;;;;;;2.83;1.15;;;10.30;99.90;;;;;;5034789;28;20185;-76
2024/04/02 01:26:11;;;;;;;2.37;0.70;;;10.20;99.90;;;;;;5032162;28;20227;-78
2024/04/02 01:28:36;;;;;;;1.58;0.70;;;10.20;99.90;;;;;;5030363;28;20201;-78
2024/04/02 01:31:02;;;;;;;1.60;0.70;;;10.20;99.90;;;;;;5030767;28;20189;-78
2024/04/02 01:33:29;;;;;;;8.57;2.08;;;10.10;99.90;;;;;;5047000;28;20205;-78
2024/04/02 01:35:54;;;;;;;1.45;0.55;;;10.20;99.90;;;;;;5047064;28;20619;-78
2024/04/02 01:38:20;;;;;;;1.87;0.60;;;10.10;99.90;;;;;;5031217;28;20237;-76
2024/04/02 01:40:46;;;;;;;1.60;0.57;;;10.10;99.90;;;;;;5031776;28;20265;-77
2024/04/02 01:43:12;;;;;;;2.07;0.70;;;10.10;99.90;;;;;;5033245;28;20185;-78
2024/04/02 01:45:38;;;;;;;2.53;0.77;;;10.10;99.90;;;;;;5030835;28;20239;-77
2024/04/02 01:48:04;;;;;;;2.83;0.80;;;10.10;99.90;;;;;;5046258;28;21213;-77
2024/04/02 01:50:30;;;;;;;1.88;0.60;;;10.10;99.90;;;;;;5030204;28;20584;-77
2024/04/02 01:52:55;;;;;;;1.67;0.67;;;10.00;99.90;;;;;;5030072;28;20193;-77
2024/04/02 01:55:21;;;;;;;4.43;0.63;;;10.10;99.90;;;;;;5046723;28;20228;-77
2024/04/02 01:57:47;;;;;;;1.67;0.60;;;10.00;99.90;;;;;;5013204;28;20202;-77
2024/04/02 02:00:14;;;;;;;1.80;0.70;;;10.00;99.90;;;;;;5036796;28;20636;-77
2024/04/02 02:02:40;;;;;;;1.50;0.60;;;10.10;99.90;;;;;;5031955;28;20276;-77
2024/04/02 02:05:06;;;;;;;3.08;0.90;;;10.10;99.90;;;;;;5031358;28;20580;-77
2024/04/02 02:07:32;;;;;;;2.28;0.90;;;10.10;99.90;;;;;;5028834;28;20201;-77
2024/04/02 02:09:58;;;;;;;2.23;0.90;;;10.20;99.90;;;;;;5028706;28;20665;-77
2024/04/02 02:12:24;;;;;;;2.03;1.00;;;10.20;99.90;;;;;;5031203;28;20188;-77
2024/04/02 02:14:49;;;;;;;3.90;1.40;;;10.20;99.90;;;;;;5013227;28;20579;-77
2024/04/02 02:17:15;;;;;;;3.30;1.10;;;10.20;99.90;;;;;;5030715;28;20260;-78
2024/04/02 02:19:41;;;;;;;2.50;0.60;;;10.30;99.90;;;;;;5031065;28;21219;-78
2024/04/02 02:22:06;;;;;;;3.60;1.60;;;10.20;99.90;;;;;;5030929;28;20185;-78
2024/04/02 02:24:32;;;;;;;4.53;0.70;;;10.20;99.90;;;;;;5030921;28;20177;-77
2024/04/02 02:26:58;;;;;;;1.60;0.70;;;10.30;99.90;;;;;;5029194;28;20208;-78
2024/04/02 02:29:25;;;;;;;2.67;0.70;;;10.30;99.90;;;;;;5029631;28;20174;-78
2024/04/02 02:31:54;;;;;;;1.60;0.70;;;10.30;99.90;;;;;;5030888;28;20247;-78
2024/04/02 02:34:20;;;;;;;1.30;0.60;;;10.20;99.90;;;;;;5029610;28;20527;-78
2024/04/02 02:36:45;;;;;;;1.90;0.80;;;10.30;99.90;;;;;;5031057;28;20208;-78
2024/04/02 02:39:11;;;;;;;4.43;0.73;;;10.20;99.90;;;;;;5033105;28;20217;-78
2024/04/02 02:41:37;;;;;;;1.70;0.60;;;10.20;99.90;;;;;;5030895;28;20531;-78
2024/04/02 02:44:04;;;;;;;2.80;0.90;;;10.30;99.90;;;;;;5030936;28;20173;-78
2024/04/02 02:46:30;;;;;;;7.18;0.90;;;10.30;99.90;;;;;;5030554;28;20177;-78
2024/04/02 02:48:57;;;;;;;1.60;0.60;;;10.30;99.90;;;;;;5029476;28;20209;-78
2024/04/02 02:51:22;;;;;;;3.35;0.80;;;10.30;99.90;;;;;;5029396;28;20376;-78
2024/04/02 02:53:48;;;;;;;1.50;0.70;;;10.30;99.90;;;;;;5030713;28;20260;-78
2024/04/02 02:56:14;;;;;;;3.33;0.67;;;10.30;99.90;;;;;;5030990;28;20181;-77
2024/04/02 02:58:41;;;;;;;3.75;0.70;;;10.30;99.90;;;;;;5034338;28;20205;-78
2024/04/02 03:01:07;;;;;;;2.15;0.70;;;10.30;99.90;;;;;;5034740;28;20174;-78
2024/04/02 03:03:33;;;;;;;2.73;0.70;;;10.30;99.90;;;;;;5034684;28;20658;-78
2024/04/02 03:05:59;;;;;;;1.97;0.60;;;10.30;99.90;;;;;;5034725;28;20595;-78
2024/04/02 03:08:25;;;;;;;4.88;0.70;;;10.30;99.90;;;;;;5033474;28;20726;-79
2024/04/02 03:11:01;;;;;;;1.60;0.70;;;10.30;99.90;;;;;;5035274;28;20669;-79
2024/04/02 03:13:27;;;;;;;2.30;0.85;;;10.30;99.90;;;;;;5034909;28;20212;-79
2024/04/02 03:15:53;;;;;;;2.42;0.80;;;10.30;99.90;;;;;;5036517;28;20236;-79
2024/04/02 03:18:19;;;;;;;2.57;0.80;;;10.30;99.90;;;;;;5032860;28;20235;-79
2024/04/02 03:20:44;;;;;;;2.63;1.00;;;10.30;99.90;;;;;;5034616;28;20580;-79
2024/04/02 03:23:10;;;;;;;2.37;0.90;;;10.30;99.90;;;;;;5034263;28;20227;-79
2024/04/02 03:25:39;;;;;;;2.70;0.80;;;10.30;99.90;;;;;;5016501;28;20584;-79
2024/04/02 03:28:06;;;;;;;2.03;0.80;;;10.40;99.90;;;;;;5033890;28;20663;-79
2024/04/02 03:30:32;;;;;;;1.95;0.80;;;10.40;99.90;;;;;;5032953;28;20169;-79
2024/04/02 03:32:58;;;;;;;2.08;0.70;;;10.50;99.90;;;;;;5034266;28;20533;-79
2024/04/02 03:35:23;;;;;;;2.20;0.70;;;10.50;99.90;;;;;;5033979;28;20268;-79
2024/04/02 03:37:49;;;;;;;2.53;0.70;;;10.60;99.90;;;;;;5049159;28;20600;-79
2024/04/02 03:40:15;;;;;;;2.63;0.70;;;10.60;99.90;;;;;;5035012;28;20235;-79
2024/04/02 03:42:41;;;;;;;2.23;0.80;;;10.70;99.90;;;;;;5034631;28;21391;-79
2024/04/02 03:45:08;;;;;;;2.47;1.00;;;10.80;99.90;;;;;;5033703;28;20249;-79
2024/04/02 03:47:34;;;;;;;1.55;0.70;;;10.80;99.90;;;;;;5035118;28;20206;-79
2024/04/02 03:49:59;;;;;;;2.80;0.60;;;10.90;99.90;;;;;;5041339;28;20646;-79
2024/04/02 03:52:25;;;;;;;2.50;0.80;;;10.90;99.90;;;;;;5046200;28;20170;-77
2024/04/02 03:54:51;;;;;;;3.00;0.70;;;11.00;99.90;;;;;;5032752;28;20173;-76
2024/04/02 03:57:16;;;;;;;2.53;0.73;;;11.00;99.90;;;;;;5040342;28;21005;-77
2024/04/02 03:59:42;;;;;;;2.77;1.10;;;11.00;99.90;;;;;;5040420;28;20197;-77
2024/04/02 04:02:08;;;;;;;1.87;0.70;;;11.10;99.90;;;;;;5033562;28;20631;-77
2024/04/02 04:04:33;;;;;;;2.57;0.93;;;11.20;99.90;;;;;;5031567;28;20186;-79
2024/04/02 04:06:59;;;;;;;2.53;0.90;;;11.20;99.90;;;;;;5033126;28;20192;-79
2024/04/02 04:09:25;;;;;;;2.30;0.80;;;11.20;99.90;;;;;;5030816;28;20296;-79
2024/04/02 04:11:51;;;;;;;2.47;0.80;;;11.30;99.90;;;;;;5026140;28;20600;-79
2024/04/02 04:14:17;;;;;;;2.13;0.70;;;11.30;99.90;;;;;;5030081;28;20186;-79
2024/04/02 04:16:43;;;;;;;3.30;0.97;;;11.40;99.90;;;;;;5031782;28;20702;-79
2024/04/02 04:19:09;;;;;;;3.08;0.75;;;11.40;99.90;;;;;;5033264;28;20639;-79
2024/04/02 04:21:35;;;;;;;2.33;0.67;;;11.40;99.90;;;;;;5032102;28;20254;-79
2024/04/02 04:24:00;;;;;;;2.83;0.73;;;11.40;99.90;;;;;;5033395;28;20173;-79
2024/04/02 04:26:26;;;;;;;3.13;1.10;;;11.50;99.90;;;;;;5032763;28;20182;-77
2024/04/02 04:28:52;;;;;;;2.17;0.70;;;11.50;99.90;;;;;;5036286;28;20604;-77
2024/04/02 04:31:18;;;;;;;2.50;0.80;;;11.50;99.90;;;;;;5032009;28;20185;-77
2024/04/02 04:33:43;;;;;;;2.77;0.93;;;11.60;99.90;;;;;;5025505;28;20591;-77
2024/04/02 04:36:09;;;;;;;2.00;0.63;;;11.60;99.90;;;;;;5011927;28;20182;-77
2024/04/02 04:38:35;;;;;;;5.00;0.70;;;11.60;99.90;;;;;;5029596;28;20671;-77
2024/04/02 04:41:01;;;;;;;2.57;0.77;;;11.60;99.90;;;;;;5031577;28;20670;-77
2024/04/02 04:43:26;;;;;;;2.73;0.97;;;11.70;99.90;;;;;;5031322;28;20682;-77
2024/04/02 04:45:53;;;;;;;2.10;0.80;;;11.70;99.90;;;;;;5033064;28;20201;-79
2024/04/02 04:48:19;;;;;;;3.78;0.95;;;11.70;99.90;;;;;;5031236;28;20205;-77
2024/04/02 04:51:01;;;;;;;3.80;0.70;;;11.70;99.90;;;;;;5032559;28;20180;-77
2024/04/02 04:53:27;;;;;;;1.80;0.60;;;11.70;99.90;;;;;;5032399;28;20181;-78
2024/04/02 04:56:03;;;;;;;1.88;0.70;;;11.70;99.90;;;;;;5032595;28;20197;-78
2024/04/02 04:58:29;;;;;;;1.63;0.60;;;11.70;99.90;;;;;;5030861;28;20303;-77
2024/04/02 05:00:55;;;;;;;2.90;0.60;;;11.70;99.90;;;;;;5032423;28;20224;-78
2024/04/02 05:03:22;;;;;;;2.92;0.80;;;11.70;99.90;;;;;;5032512;28;20261;-79
2024/04/02 05:05:48;;;;;;;2.53;0.80;;;11.80;99.90;;;;;;5035487;28;20184;-79
2024/04/02 05:08:17;;;;;;;2.20;0.75;;;11.70;99.90;;;;;;5030868;28;20205;-76
2024/04/02 05:10:44;;;;;;;3.15;1.00;;;11.80;99.90;;;;;;5031185;28;20767;-77
2024/04/02 05:13:11;;;;;;;5.13;0.93;;;11.80;99.90;;;;;;5030265;28;20187;-77
2024/04/02 05:15:36;;;;;;;2.63;0.70;;;11.80;99.90;;;;;;5032166;28;20264;-78
2024/04/02 05:18:02;;;;;;;1.40;0.70;;;11.80;99.90;;;;;;5031651;28;20731;-77
2024/04/02 05:20:28;;;;;;;3.10;0.80;;;11.80;99.90;;;;;;5030983;28;20185;-78
2024/04/02 05:22:54;;;;;;;3.10;0.90;;;11.80;99.90;;;;;;5030711;28;20185;-78
2024/04/02 05:25:20;;;;;;;6.93;0.90;;;11.90;99.90;;;;;;5031910;28;20585;-78
2024/04/02 05:27:47;;;;;;;2.90;0.63;;;11.90;99.90;;;;;;5031343;28;20766;-78
2024/04/02 05:30:13;;;;;;;1.77;0.70;;;11.90;99.90;;;;;;5032391;28;20599;-78
2024/04/02 05:32:39;;;;;;;4.55;1.00;;;11.90;99.90;;;;;;5032562;28;20284;-78
2024/04/02 05:35:05;;;;;;;1.83;0.80;;;12.00;99.90;;;;;;5032257;28;20181;-78
2024/04/02 05:37:31;;;;;;;3.50;1.00;;;12.00;99.90;;;;;;5047005;28;20255;-78
2024/04/02 05:39:56;;;;;;;3.43;1.00;;;12.00;99.90;;;;;;5032177;28;20205;-78
2024/04/02 05:42:22;;;;;;;2.93;0.73;;;12.00;99.90;;;;;;5033785;28;20177;-78
2024/04/02 05:44:48;;;;;;;1.40;0.60;;;12.10;99.90;;;;;;5032205;28;20201;-78
2024/04/02 05:47:14;;;;;;;1.97;0.70;;;12.10;99.90;;;;;;5031315;28;20199;-78
2024/04/02 05:49:39;;;;;;;4.33;0.70;;;12.10;99.90;;;;;;5031978;28;20266;-78
2024/04/02 05:52:05;;;;;;;2.00;0.70;;;12.20;99.90;;;;;;5032451;28;20742;-78
2024/04/02 05:54:31;;;;;;;2.25;0.68;;;12.20;99.90;;;;;;5031422;28;20182;-77
2024/04/02 05:56:58;;;;;;;2.45;0.80;;;12.30;99.90;;;;;;5029904;28;20177;-78
2024/04/02 05:59:24;;;;;;;2.63;0.70;;;12.30;99.90;;;;;;5030055;28;20193;-78
2024/04/02 06:01:51;;;;;;;1.87;0.80;;;12.30;99.90;;;;;;5013456;28;20731;-77
2024/04/02 06:04:17;;;;;;;4.00;0.73;;;12.40;99.90;;;;;;5030129;28;20595;-78
2024/04/02 06:06:45;;;;;;;1.33;0.63;;;12.40;99.90;;;;;;5033013;28;20174;-78
2024/04/02 06:09:12;;;;;;;5.25;0.80;;;12.50;99.90;;;;;;5036468;28;20616;-78
2024/04/02 06:11:37;;;;;;;3.08;0.65;;;12.50;99.90;;;;;;5029774;28;20550;-78
2024/04/02 06:14:03;;;;;;;2.57;0.60;;;12.60;99.90;;;;;;5026662;28;20177;-78
2024/04/02 06:16:30;;;;;;;2.80;0.80;;;12.60;99.90;;;;;;5031577;28;20195;-78
2024/04/02 06:18:56;;;;;;;2.83;0.82;;;12.60;99.90;;;;;;5035819;28;20212;-77
2024/04/02 06:21:21;;;;;;;2.90;0.67;;;12.70;99.90;;;;;;5039069;28;20632;-77
2024/04/02 06:23:47;;;;;;;1.90;0.70;;;12.70;99.90;;;;;;5029867;28;20185;-77
2024/04/02 06:26:16;;;;;;;3.20;0.70;;;12.80;99.90;;;;;;5031250;28;20640;-79
2024/04/02 06:28:45;;;;;;;2.30;0.80;;;12.80;99.90;;;;;;5035886;28;20640;-78
2024/04/02 06:31:11;;;;;;;2.03;0.60;;;12.90;99.90;;;;;;5028016;28;20573;-78
2024/04/02 06:33:37;;;;;;;5.88;0.80;;;13.00;99.90;;;;;;5012932;28;20193;-78
2024/04/02 06:36:03;;;;;;;1.67;0.67;;;13.10;99.90;;;;;;5028847;28;20606;-78
2024/04/02 06:38:29;;;;;;;2.57;0.70;;;13.10;99.90;;;;;;5029874;28;20352;-78
2024/04/02 06:40:55;;;;;;;2.07;0.70;;;13.20;99.90;;;;;;5030364;28;20584;-78
2024/04/02 06:43:23;;;;;;;4.00;0.90;;;13.30;99.90;;;;;;5030363;28;20684;-77
2024/04/02 06:45:59;;;;;;;1.77;0.80;;;13.30;99.90;;;;;;5014782;28;20182;-78
2024/04/02 06:48:25;;;;;;;2.10;0.60;;;13.40;99.90;;;;;;5016381;28;20741;-78
2024/04/02 06:51:02;;;;;;;4.05;1.13;;;13.40;99.90;;;;;;5034901;28;20697;-78
2024/04/02 06:53:30;;;;;;;3.60;1.10;;;13.40;99.90;;;;;;5026048;28;20185;-78
2024/04/02 06:55:56;;;;;;;5.87;0.80;;;13.50;99.90;;;;;;5026938;28;20679;-78
2024/04/02 06:58:22;;;;;;;2.70;0.80;;;13.60;99.90;;;;;;5033450;28;20636;-77
2024/04/02 07:00:48;;;;;;;6.40;0.83;;;13.80;99.90;;;;;;5029168;28;20623;-77
2024/04/02 07:03:23;;;;;;;3.97;0.90;;;14.40;99.90;;;;;;5033200;28;20623;-78
2024/04/02 07:05:51;;;;;;;5.30;0.90;;;15.20;99.90;;;;;;5015867;28;20692;-78
2024/04/02 07:08:17;;;;;;;4.70;0.83;;;16.10;99.90;;;;;;5032555;28;20636;-78
2024/04/02 07:10:58;;;;;;;4.80;1.00;;;16.60;99.90;;;;;;5034241;28;20642;-78
2024/04/02 07:13:24;;;;;;;2.73;0.70;;;17.00;99.90;;;;;;5053376;28;20584;-78
2024/04/02 07:15:50;;;;;;;3.73;0.80;;;17.80;99.90;;;;;;5035383;28;20584;-78
2024/04/02 07:18:15;;;;;;;3.00;0.80;;;18.60;99.90;;;;;;5037148;28;20642;-78
2024/04/02 07:20:41;;;;;;;4.93;0.90;;;19.60;99.90;;;;;;5033849;28;20177;-77
2024/04/02 07:23:08;;;;;;;5.63;0.90;;;20.40;99.90;;;;;;5033232;28;20182;-78
2024/04/02 07:25:33;;;;;;;2.97;0.80;;;21.30;99.90;;;;;;5050631;28;20667;-77
2024/04/02 07:27:59;;;;;;;2.70;0.77;;;22.30;99.90;;;;;;5051274;28;20743;-76
2024/04/02 07:30:25;;;;;;;2.70;0.70;;;23.10;99.90;;;;;;5030247;28;20185;-75
2024/04/02 07:32:51;;;;;;;3.00;0.90;;;23.80;99.90;;;;;;5028735;28;20583;-76
2024/04/02 07:35:18;;;;;;;3.40;1.30;;;24.40;99.90;;;;;;5025528;28;20198;-76
2024/04/02 07:37:44;;;;;;;3.20;0.90;;;24.50;99.90;;;;;;5031809;28;20623;-76
2024/04/02 07:40:09;;;;;;;2.70;0.90;;;24.30;99.90;;;;;;5029538;28;20636;-76
2024/04/02 07:42:35;;;;;;;2.50;0.90;;;23.90;99.90;;;;;;5030390;28;20181;-76
2024/04/02 07:45:01;;;;;;;3.50;0.90;;;23.50;99.90;;;;;;5032535;28;20622;-76
2024/04/02 07:47:26;;;;;;;3.37;0.80;;;23.00;99.90;;;;;;5033712;28;20202;-76
2024/04/02 07:49:52;;;;;;;4.30;0.80;;;22.40;99.90;;;;;;5037804;28;20223;-76
2024/04/02 07:52:18;;;;;;;3.70;0.83;;;21.80;99.90;;;;;;5035532;28;20247;-76
2024/04/02 07:54:44;;;;;;;3.07;0.80;;;21.20;99.90;;;;;;5033478;28;20188;-76
2024/04/02 07:57:09;;;;;;;7.63;1.37;;;20.70;99.90;;;;;;5033250;28;20580;-76
2024/04/02 07:59:35;;;;;;;3.43;0.77;;;20.30;99.90;;;;;;5033530;28;20201;-76
2024/04/02 08:02:01;;;;;;;4.80;0.90;;;20.00;99.90;;;;;;5032558;28;20269;-77
2024/04/02 08:04:27;;;;;;;2.97;0.70;;;19.60;99.90;;;;;;5032862;28;20216;-77
2024/04/02 08:06:53;;;;;;;3.77;0.90;;;19.30;99.90;;;;;;5040875;28;20619;-77
2024/04/02 08:09:19;;;;;;;2.50;1.00;;;19.00;99.90;;;;;;5033335;28;20232;-77
2024/04/02 08:11:44;;;;;;;3.57;0.70;;;18.70;99.90;;;;;;5035995;28;20636;-77
2024/04/02 08:14:11;;;;;;;4.17;1.03;;;18.50;99.90;;;;;;5046749;28;20178;-77
2024/04/02 08:16:36;;;;;;;4.60;0.90;;;18.20;99.90;;;;;;5033167;28;20196;-77
2024/04/02 08:19:02;;;;;;;4.03;1.10;;;17.90;99.90;;;;;;5033339;28;20631;-77
2024/04/02 08:21:28;;;;;;;4.57;1.23;;;17.60;99.90;;;;;;5033443;28;20185;-77
2024/04/02 08:23:53;;;;;;;3.80;1.00;;;17.40;99.90;;;;;;5031866;28;20583;-76
2024/04/02 08:26:19;;;;;;;4.47;0.90;;;17.20;99.90;;;;;;5033194;28;20228;-76
2024/04/02 08:28:45;;;;;;;3.30;0.97;;;17.10;99.90;;;;;;5033130;28;20208;-77
2024/04/02 08:31:11;;;;;;;3.53;0.93;;;16.90;99.90;;;;;;5032635;28;20178;-77
2024/04/02 08:33:37;;;;;;;3.60;0.90;;;16.70;99.90;;;;;;5033714;28;21181;-77
2024/04/02 08:36:03;;;;;;;4.90;1.10;;;16.60;99.90;;;;;;5033228;28;20651;-77
2024/04/02 08:38:29;;;;;;;7.67;1.00;;;16.50;99.90;;;;;;5032220;28;20212;-77
2024/04/02 08:41:05;;;;;;;2.33;0.80;;;16.50;99.90;;;;;;5033459;28;20687;-77
2024/04/02 08:43:31;;;;;;;7.20;0.90;;;16.50;99.90;;;;;;5033025;28;20200;-77
2024/04/02 08:45:59;;;;;;;2.30;0.80;;;16.50;99.90;;;;;;5034640;28;20604;-77
2024/04/02 08:48:26;;;;;;;4.30;0.90;;;16.50;99.90;;;;;;5031221;28;20248;-76
2024/04/02 08:50:53;;;;;;;4.77;0.70;;;16.40;99.90;;;;;;5032121;28;20593;-77
2024/04/02 08:53:19;;;;;;;6.10;1.00;;;16.40;99.90;;;;;;5032787;28;20577;-77
2024/04/02 08:55:46;;;;;;;5.50;0.83;;;16.30;99.90;;;;;;5032845;28;21196;-77
2024/04/02 08:58:12;;;;;;;4.33;0.80;;;16.30;99.90;;;;;;5032121;28;20216;-77
2024/04/02 09:00:39;;;;;;;3.73;0.80;;;16.20;99.90;;;;;;5032473;28;20599;-77
2024/04/02 09:03:07;;;;;;;1.73;0.97;;;16.10;99.90;;;;;;5031081;28;20679;-77
2024/04/02 09:05:33;;;;;;;3.00;1.00;;;16.10;99.90;;;;;;5032456;28;20588;-77
2024/04/02 09:07:59;;;;;;;4.43;1.00;;;16.10;99.90;;;;;;5032400;28;20613;-77
2024/04/02 09:10:24;;;;;;;4.60;1.07;;;16.10;99.90;;;;;;5031678;28;20268;-77
2024/04/02 09:12:50;;;;;;;3.30;1.00;;;16.10;99.90;;;;;;5020053;28;20224;-77
2024/04/02 09:15:16;;;;;;;4.63;0.90;;;16.10;99.90;;;;;;5023893;28;20182;-77
2024/04/02 09:17:41;;;;;;;3.67;0.90;;;16.10;99.90;;;;;;5029023;28;20255;-76
2024/04/02 09:20:07;;;;;;;5.13;1.47;;;16.20;99.90;;;;;;5029608;28;20639;-77
2024/04/02 09:22:33;;;;;;;4.30;1.40;;;16.20;99.90;;;;;;5032731;28;20184;-77
2024/04/02 09:24:59;;;;;;;6.80;1.53;;;16.30;99.90;;;;;;5034630;28;20940;-77
2024/04/02 09:27:24;;;;;;;2.33;0.90;;;16.40;99.90;;;;;;5031961;28;20741;-77
2024/04/02 09:29:54;;;;;;;5.90;1.00;;;16.50;99.90;;;;;;5031971;28;20181;-77
2024/04/02 09:32:21;;;;;;;1.97;0.87;;;16.60;99.90;;;;;;5037781;28;20726;-77
2024/04/02 09:34:52;;;;;;;2.60;0.60;;;16.70;99.90;;;;;;5032207;28;20605;-77
2024/04/02 09:37:36;;;;;;;4.13;0.60;;;16.90;99.90;;;;;;5031457;28;20924;-77
2024/04/02 09:40:05;;;;;;;2.57;0.60;;;17.10;99.90;;;;;;5030639;28;20991;-77
2024/04/02 09:42:32;;;;;;;1.90;0.50;;;17.30;99.90;;;;;;5032212;28;20931;-77
2024/04/02 09:45:03;;;;;;;1.80;0.60;;;17.40;99.90;;;;;;5031539;28;20609;-77
2024/04/02 09:47:29;;;;;;;2.20;0.50;;;17.60;99.90;;;;;;5025310;28;20632;-77
2024/04/02 09:49:56;;;;;;;1.70;0.40;;;17.70;99.90;;;;;;5031801;28;20672;-77
2024/04/02 09:52:23;;;;;;;1.93;0.70;;;17.80;99.90;;;;;;5031534;28;20618;-77
2024/04/02 09:54:49;;;;;;;1.70;0.60;;;17.90;99.90;;;;;;5030347;28;20650;-77
2024/04/02 09:57:16;;;;;;;1.80;0.50;;;18.10;99.90;;;;;;5029795;28;20573;-77
2024/04/02 09:59:42;;;;;;;2.17;0.60;;;18.10;99.90;;;;;;5030374;28;20631;-77
2024/04/02 10:02:18;;;;;;;2.83;0.53;;;18.20;99.90;;;;;;5031193;28;20576;-77
2024/04/02 10:04:46;;;;;;;2.40;0.60;;;18.10;99.90;;;;;;5031390;28;20184;-77
2024/04/02 10:07:23;;;;;;;2.70;0.40;;;18.10;99.90;;;;;;5045784;28;20580;-77
2024/04/02 10:10:00;;;;;;;7.63;1.10;;;18.00;99.90;;;;;;5046391;28;20599;-76
2024/04/02 10:12:31;;;;;;;2.80;0.60;;;17.90;99.90;;;;;;5035595;28;20588;-77
2024/04/02 10:15:02;;;;;;;1.40;0.50;;;17.80;99.90;;;;;;5029949;28;20592;-77
2024/04/02 10:17:28;;;;;;;2.07;0.70;;;17.70;99.90;;;;;;5030793;28;20612;-77
2024/04/02 10:19:54;;;;;;;3.00;0.70;;;17.60;99.90;;;;;;5030709;28;21080;-77
2024/04/02 10:22:39;;;;;;;1.93;0.70;;;17.50;99.90;;;;;;5029856;28;20676;-76
2024/04/02 10:25:12;;;;;;;3.50;0.70;;;17.40;99.90;;;;;;5034194;28;20176;-76
2024/04/02 10:27:47;;;;;;;2.50;0.87;;;17.30;99.90;;;;;;5032785;28;20616;-76
2024/04/02 10:30:27;;;;;;;3.20;0.50;;;17.10;99.90;;;;;;5029884;28;21049;-77
2024/04/02 10:32:56;;;;;;;2.10;0.50;;;17.00;99.90;;;;;;5030833;28;21147;-77
2024/04/02 10:35:25;;;;;;;2.10;0.60;;;17.00;99.90;;;;;;5029683;28;20676;-77
2024/04/02 10:37:52;;;;;;;2.67;0.70;;;17.00;99.90;;;;;;5046610;28;20606;-76
2024/04/02 10:40:19;;;;;;;1.70;0.50;;;17.00;99.90;;;;;;5032098;28;20683;-77
2024/04/02 10:42:49;;;;;;;3.07;0.60;;;17.10;99.90;;;;;;5039857;28;20592;-77
2024/04/02 10:45:16;;;;;;;3.97;0.70;;;17.10;99.90;;;;;;5030202;28;20592;-77
2024/04/02 10:47:46;;;;;;;2.17;0.50;;;17.20;99.90;;;;;;5031093;28;20640;-77
2024/04/02 10:50:14;;;;;;;2.30;0.60;;;17.30;99.90;;;;;;5030321;28;21141;-77
2024/04/02 10:52:40;;;;;;;1.30;0.50;;;17.40;99.90;;;;;;5030333;28;20597;-77
2024/04/02 10:55:06;;;;;;;2.93;0.60;;;17.70;99.90;;;;;;5014235;28;20592;-77
2024/04/02 10:57:36;;;;;;;1.97;0.60;;;17.80;99.90;;;;;;5030808;28;20620;-77
2024/04/02 11:00:05;;;;;;;2.80;0.60;;;18.00;99.90;;;;;;5029507;28;21023;-77
2024/04/02 11:02:31;;;;;;;4.43;0.70;;;18.10;99.90;;;;;;5030807;28;20591;-77
2024/04/02 11:04:58;;;;;;;1.77;0.60;;;18.20;99.90;;;;;;5030848;28;20576;-77
2024/04/02 11:07:26;;;;;;;2.13;0.57;;;18.30;99.90;;;;;;5031547;28;20631;-77
2024/04/02 11:09:53;;;;;;;1.60;0.50;;;18.30;99.90;;;;;;5029919;28;20592;-77
2024/04/02 11:12:19;;;;;;;2.00;0.50;;;18.20;99.90;;;;;;5030402;28;21001;-77
2024/04/02 11:14:53;;;;;;;4.40;0.70;;;18.20;99.90;;;;;;5032406;28;20670;-77
2024/04/02 11:17:20;;;;;;;1.57;0.60;;;18.10;99.90;;;;;;5014869;28;20773;-77
2024/04/02 11:19:45;;;;;;;2.33;0.70;;;18.00;99.90;;;;;;5008908;28;20640;-77
2024/04/02 11:25:07;;;;;;;2.43;0.60;;;17.80;99.90;;;;;;5033473;28;20177;-77
2024/04/02 11:27:32;;;;;;;1.83;0.50;;;17.70;99.90;;;;;;5033487;28;20623;-77
2024/04/02 11:29:59;;;;;;;1.83;0.60;;;17.60;99.90;;;;;;5034474;28;20592;-77
2024/04/02 11:32:26;;;;;;;2.10;0.90;;;17.50;99.90;;;;;;5034357;28;20177;-77
2024/04/02 11:35:02;;;;;;;2.13;0.70;;;17.40;99.90;;;;;;5034315;28;20666;-77
2024/04/02 11:37:29;;;;;;;1.67;0.50;;;17.30;99.90;;;;;;5034777;28;20623;-77
2024/04/02 11:39:55;;;;;;;2.20;0.60;;;17.20;99.90;;;;;;5033271;28;20734;-77
2024/04/02 11:42:22;;;;;;;1.87;0.50;;;17.00;99.90;;;;;;5034265;28;20581;-77
2024/04/02 11:44:51;;;;;;;1.83;0.50;;;16.80;99.90;;;;;;5034489;28;20666;-77
2024/04/02 11:47:17;;;;;;;3.80;1.10;;;16.60;99.90;;;;;;5033533;28;20687;-77
2024/04/02 11:49:43;;;;;;;3.03;1.03;;;16.40;99.90;;;;;;5034332;28;20675;-76
2024/04/02 11:52:10;;;;;;;2.63;1.60;;;16.20;99.90;;;;;;5025595;28;20613;-76
2024/04/02 11:54:36;;;;;;;3.13;0.87;;;16.00;99.90;;;;;;5033624;28;20596;-76
2024/04/02 12:00:07;;;;;;;3.17;1.20;;;15.70;99.90;;;;;;5032025;28;20632;-76
2024/04/02 12:02:43;;;;;;;4.70;1.00;;;15.60;99.90;;;;;;5033645;28;20588;-76
2024/04/02 12:05:10;;;;;;;2.93;0.93;;;15.60;99.90;;;;;;5033638;28;20600;-76
2024/04/02 12:07:37;;;;;;;3.00;0.77;;;15.50;99.90;;;;;;5031676;28;20975;-76
2024/04/02 12:10:07;;;;;;;2.13;0.80;;;15.50;99.90;;;;;;5015461;28;20591;-76
2024/04/02 12:12:35;;;;;;;3.37;0.80;;;15.50;99.90;;;;;;5032186;28;20590;-76
2024/04/02 12:15:04;;;;;;;4.60;0.90;;;15.40;99.90;;;;;;5028101;28;21270;-76
2024/04/02 12:17:30;;;;;;;3.00;0.83;;;15.40;99.90;;;;;;5032807;28;20662;-76
2024/04/02 12:19:56;;;;;;;2.27;0.60;;;15.40;99.90;;;;;;5031453;28;20659;-77
2024/04/02 12:22:28;;;;;;;3.50;0.70;;;15.40;99.90;;;;;;5033184;28;20586;-76
2024/04/02 12:24:56;;;;;;;1.77;0.60;;;15.30;99.90;;;;;;5048342;28;20595;-76
2024/04/02 12:27:24;;;;;;;2.07;0.73;;;15.30;99.90;;;;;;5032612;28;20619;-76
2024/04/02 12:29:57;;;;;;;2.07;0.80;;;15.20;99.90;;;;;;5031367;28;20573;-76
2024/04/02 12:32:24;;;;;;;3.50;0.70;;;15.30;99.90;;;;;;5033001;28;20588;-76
2024/04/02 12:34:50;;;;;;;2.57;0.73;;;15.20;99.90;;;;;;5032105;28;20592;-76
2024/04/02 12:37:16;;;;;;;4.70;2.93;;;15.20;99.90;;;;;;5032636;28;21117;-77
2024/04/02 12:39:46;;;;;;;7.00;4.40;;;15.20;99.90;;;;;;5032358;28;20196;-76
2024/04/02 12:42:22;;;;;;;7.57;3.13;;;15.10;99.90;;;;;;5032682;28;20671;-76
2024/04/02 12:44:48;;;;;;;5.30;2.90;;;15.10;99.90;;;;;;5032242;28;20611;-76
2024/04/02 12:47:14;;;;;;;6.33;2.00;;;15.10;99.90;;;;;;5031838;28;20600;-76
2024/04/02 12:49:41;;;;;;;4.00;1.20;;;15.10;99.90;;;;;;5031196;28;20588;-76
2024/04/02 12:52:08;;;;;;;3.83;1.00;;;15.20;99.90;;;;;;5032177;28;20634;-76